Time;durP1;ratioP1;P1;durP2;ratioP2;P2;SDS_P1;SDS_P2;PMS_P1;PMS_P2;Temp;Humidity;BMP_temperature;BMP_pressure;BME280_temperature;BME280_humidity;BME280_pressure;Samples;Min_cycle;Max_cycle;Signal;HPM_P1;HPM_P2
2021/12/11 00:00:30;;;;;;;1.23;1.10;;;2.10;99.90;;;;;;5006612;28;21043;-87
2021/12/11 00:03:02;;;;;;;1.47;1.20;;;2.10;99.90;;;;;;5009863;28;20452;-88
2021/12/11 00:05:29;;;;;;;0.57;0.50;;;;;;;;;;5011900;28;20457;-87
2021/12/11 00:07:56;;;;;;;1.37;0.90;;;2.00;99.90;;;;;;5008028;28;20457;-88
2021/12/11 00:10:28;;;;;;;3.80;1.27;;;2.10;99.90;;;;;;5013180;28;20445;-86
2021/12/11 00:12:58;;;;;;;0.53;0.50;;;2.10;99.90;;;;;;5010248;28;20468;-88
2021/12/11 00:15:28;;;;;;;0.60;0.53;;;2.10;99.90;;;;;;5013066;28;20830;-87
2021/12/11 00:17:58;;;;;;;1.07;0.63;;;2.10;99.90;;;;;;5012822;28;20457;-87
2021/12/11 00:20:31;;;;;;;1.20;1.10;;;2.20;99.90;;;;;;5012276;28;20457;-88
2021/12/11 00:22:58;;;;;;;1.40;0.83;;;;;;;;;;5012930;28;20460;-89
2021/12/11 00:25:28;;;;;;;0.70;0.70;;;2.10;99.90;;;;;;5013030;28;20452;-87
2021/12/11 00:28:07;;;;;;;1.00;0.70;;;2.20;99.90;;;;;;5013017;28;20449;-87
2021/12/11 00:30:36;;;;;;;0.63;0.53;;;2.20;99.90;;;;;;5009795;28;20941;-88
2021/12/11 00:33:08;;;;;;;1.43;1.07;;;2.00;99.90;;;;;;5012898;28;20467;-88
2021/12/11 00:35:36;;;;;;;1.30;1.17;;;;;;;;;;5011908;28;20457;-89
2021/12/11 00:38:06;;;;;;;2.37;1.57;;;2.20;99.90;;;;;;5012763;28;20453;-89
2021/12/11 00:40:36;;;;;;;1.80;1.33;;;2.20;99.90;;;;;;5012903;28;20448;-88
2021/12/11 00:43:05;;;;;;;1.20;0.63;;;2.20;99.90;;;;;;5012777;28;20456;-88
2021/12/11 00:45:39;;;;;;;2.20;1.20;;;2.10;99.90;;;;;;5012894;28;20795;-89
2021/12/11 00:48:09;;;;;;;1.20;1.10;;;2.20;99.90;;;;;;5013069;28;20460;-89
2021/12/11 00:50:39;;;;;;;0.47;0.40;;;2.20;99.90;;;;;;5012606;28;20456;-90
2021/12/11 00:53:11;;;;;;;0.87;0.73;;;2.20;99.90;;;;;;5013399;28;20453;-90
2021/12/11 00:55:41;;;;;;;1.10;0.77;;;2.20;99.90;;;;;;5013388;28;20445;-89
2021/12/11 00:58:11;;;;;;;1.80;0.87;;;2.30;99.90;;;;;;5016788;28;20444;-87
2021/12/11 01:00:43;;;;;;;1.80;0.60;;;2.20;99.90;;;;;;5016617;28;20440;-87
2021/12/11 01:03:11;;;;;;;1.63;0.67;;;2.20;99.90;;;;;;5013224;28;20848;-89
2021/12/11 01:05:41;;;;;;;0.63;0.63;;;2.20;99.90;;;;;;5009697;28;20453;-89
2021/12/11 01:08:25;;;;;;;0.73;0.67;;;2.30;99.90;;;;;;5010973;28;20480;-91
2021/12/11 01:10:59;;;;;;;2.60;0.83;;;2.70;99.90;;;;;;5016103;28;20456;-89
2021/12/11 01:13:31;;;;;;;0.60;0.60;;;2.30;99.90;;;;;;5015894;28;20471;-90
2021/12/11 01:16:10;;;;;;;0.60;0.40;;;2.30;99.90;;;;;;5016208;28;20449;-87
2021/12/11 01:18:40;;;;;;;1.00;0.90;;;;;;;;;;5016089;28;20817;-88
2021/12/11 01:21:29;;;;;;;0.90;0.90;;;2.30;99.90;;;;;;5014932;28;20823;-91
2021/12/11 01:24:11;;;;;;;0.80;0.80;;;2.30;99.90;;;;;;5015110;28;20514;-90
2021/12/11 01:26:43;;;;;;;1.00;0.90;;;2.30;99.90;;;;;;5015606;28;20460;-88
2021/12/11 01:29:10;;;;;;;0.77;0.63;;;;;;;;;;5015573;28;20788;-88
2021/12/11 01:31:38;;;;;;;0.40;0.37;;;2.30;99.90;;;;;;5015289;28;20477;-87
2021/12/11 01:34:06;;;;;;;0.73;0.60;;;2.10;99.90;;;;;;5010128;28;20471;-88
2021/12/11 01:36:34;;;;;;;2.47;0.73;;;2.40;99.90;;;;;;5010043;28;20445;-89
2021/12/11 01:39:04;;;;;;;0.67;0.50;;;2.30;99.90;;;;;;5015181;28;20460;-88
2021/12/11 01:41:32;;;;;;;1.10;0.90;;;;;;;;;;5009971;28;20506;-88
2021/12/11 01:44:05;;;;;;;0.73;0.73;;;2.40;99.90;;;;;;5015232;28;20449;-89
2021/12/11 01:46:32;;;;;;;0.80;0.60;;;;;;;;;;5008682;28;20453;-87
2021/12/11 01:49:02;;;;;;;0.73;0.50;;;2.40;99.90;;;;;;5012186;28;20508;-88
2021/12/11 01:51:34;;;;;;;0.63;0.63;;;2.70;99.90;;;;;;5014021;28;20489;-89
2021/12/11 01:54:06;;;;;;;0.77;0.77;;;2.40;99.90;;;;;;5015024;28;20456;-88
2021/12/11 01:56:34;;;;;;;0.50;0.50;;;;;;;;;;5014892;28;20968;-88
2021/12/11 01:59:06;;;;;;;0.63;0.63;;;2.50;99.90;;;;;;5012075;28;20496;-88
2021/12/11 02:01:37;;;;;;;0.50;0.50;;;2.60;99.90;;;;;;5014772;28;20793;-88
2021/12/11 02:04:06;;;;;;;2.47;0.63;;;2.50;99.90;;;;;;5014872;28;20467;-89
2021/12/11 02:06:37;;;;;;;0.90;0.70;;;2.30;99.90;;;;;;5010880;28;20478;-89
2021/12/11 02:09:13;;;;;;;0.70;0.70;;;2.50;99.90;;;;;;5011433;28;20453;-91
2021/12/11 02:11:40;;;;;;;0.70;0.70;;;;;;;;;;5014604;28;20507;-88
2021/12/11 02:14:09;;;;;;;0.60;0.50;;;2.60;99.90;;;;;;5014500;28;20476;-88
2021/12/11 02:16:42;;;;;;;1.67;0.83;;;2.70;99.90;;;;;;5014642;28;20949;-88
2021/12/11 02:19:15;;;;;;;1.13;0.60;;;2.50;99.90;;;;;;5011588;28;20500;-88
2021/12/11 02:21:49;;;;;;;1.37;0.80;;;2.60;99.90;;;;;;5013304;28;20473;-88
2021/12/11 02:24:21;;;;;;;1.80;1.30;;;2.50;99.90;;;;;;5011500;28;20800;-88
2021/12/11 02:26:49;;;;;;;1.60;1.30;;;;;;;;;;5014453;28;20476;-88
2021/12/11 02:29:18;;;;;;;1.67;1.10;;;2.30;99.90;;;;;;5014113;28;20799;-88
2021/12/11 02:31:49;;;;;;;1.43;1.27;;;2.20;99.90;;;;;;5009938;28;20485;-87
2021/12/11 02:34:21;;;;;;;1.33;1.23;;;2.00;99.90;;;;;;5009955;28;20456;-87
2021/12/11 02:36:54;;;;;;;1.57;1.00;;;1.70;99.90;;;;;;5012938;28;20457;-91
2021/12/11 02:39:25;;;;;;;0.80;0.80;;;1.80;99.90;;;;;;5014074;28;20460;-88
2021/12/11 02:41:55;;;;;;;0.53;0.53;;;1.70;99.90;;;;;;5013901;28;20460;-88
2021/12/11 02:44:32;;;;;;;1.80;1.00;;;1.70;99.90;;;;;;5013907;28;20460;-88
2021/12/11 02:47:02;;;;;;;1.40;0.93;;;1.70;99.90;;;;;;5011105;28;20525;-87
2021/12/11 02:49:33;;;;;;;1.17;1.00;;;1.70;99.90;;;;;;5014041;28;20453;-87
2021/12/11 02:52:08;;;;;;;2.23;0.90;;;1.60;99.90;;;;;;5009719;28;20492;-88
2021/12/11 02:54:39;;;;;;;0.90;0.67;;;1.40;99.90;;;;;;5014247;28;20459;-86
2021/12/11 02:57:14;;;;;;;0.60;0.53;;;1.60;99.90;;;;;;5014486;28;20548;-87
2021/12/11 02:59:44;;;;;;;0.50;0.40;;;;;;;;;;5014661;28;20455;-87
2021/12/11 03:02:17;;;;;;;0.70;0.60;;;1.60;99.90;;;;;;5014745;28;20460;-87
2021/12/11 03:04:50;;;;;;;0.80;0.50;;;1.60;99.90;;;;;;5008090;28;20449;-88
2021/12/11 03:07:23;;;;;;;0.40;0.30;;;2.30;99.90;;;;;;5013801;28;20457;-87
2021/12/11 03:09:52;;;;;;;0.50;0.40;;;1.50;99.90;;;;;;5013777;28;20515;-86
2021/12/11 03:12:20;;;;;;;0.70;0.60;;;;;;;;;;5013724;28;20492;-87
2021/12/11 03:14:47;;;;;;;0.67;0.60;;;;;;;;;;5013672;28;20484;-87
2021/12/11 03:17:17;;;;;;;0.50;0.50;;;1.60;99.90;;;;;;5014328;28;20504;-87
2021/12/11 03:19:46;;;;;;;0.80;0.63;;;;;;;;;;5011215;28;20888;-87
2021/12/11 03:22:16;;;;;;;1.77;0.70;;;1.60;99.90;;;;;;5014355;28;20897;-86
2021/12/11 03:24:45;;;;;;;1.00;0.90;;;1.70;99.90;;;;;;5015438;28;20457;-87
2021/12/11 03:27:12;;;;;;;1.47;1.00;;;1.40;99.90;;;;;;5017649;28;20456;-87
2021/12/11 03:29:40;;;;;;;0.87;0.87;;;;;;;;;;5022284;28;20798;-86
2021/12/11 03:32:09;;;;;;;1.53;1.27;;;1.60;99.90;;;;;;5021552;28;20999;-87
2021/12/11 03:34:36;;;;;;;0.93;0.80;;;;;;;;;;5022674;28;20445;-86
2021/12/11 03:37:06;;;;;;;0.83;0.80;;;2.00;99.90;;;;;;5021293;28;20456;-86
2021/12/11 03:39:35;;;;;;;1.17;1.07;;;1.70;99.90;;;;;;5017794;28;20464;-86
2021/12/11 03:42:10;;;;;;;0.70;0.67;;;1.50;99.90;;;;;;5020047;28;20441;-87
2021/12/11 03:44:38;;;;;;;1.40;1.30;;;1.50;99.90;;;;;;5017114;28;20459;-86
2021/12/11 03:47:08;;;;;;;1.80;1.70;;;1.60;99.90;;;;;;5019660;28;20460;-87
2021/12/11 03:49:36;;;;;;;1.07;1.07;;;;;;;;;;5019289;28;20463;-87
2021/12/11 03:52:06;;;;;;;2.57;1.60;;;1.50;99.90;;;;;;5018485;28;20491;-87
2021/12/11 03:54:36;;;;;;;1.60;1.47;;;1.50;99.90;;;;;;5020151;28;20461;-87
2021/12/11 03:57:08;;;;;;;1.07;0.97;;;1.50;99.90;;;;;;5050305;23;20497;-86
2021/12/11 03:59:35;;;;;;;1.10;1.00;;;;;;;;;;5039063;28;20460;-86
2021/12/11 04:02:11;;;;;;;1.83;1.60;;;1.20;99.90;;;;;;5035947;28;20440;-88
2021/12/11 04:04:41;;;;;;;2.10;1.90;;;1.50;99.90;;;;;;5036021;28;20456;-87
2021/12/11 04:07:11;;;;;;;2.13;1.93;;;1.50;99.90;;;;;;5037717;28;20448;-88
2021/12/11 04:09:39;;;;;;;1.57;1.47;;;1.50;99.90;;;;;;5037868;28;20461;-87
2021/12/11 04:12:09;;;;;;;1.30;1.20;;;1.60;99.90;;;;;;5039279;28;20475;-87
2021/12/11 04:14:38;;;;;;;2.73;2.40;;;1.50;99.90;;;;;;5041284;28;20523;-89
2021/12/11 04:17:07;;;;;;;2.27;2.07;;;1.50;99.90;;;;;;5042334;28;20455;-87
2021/12/11 04:19:35;;;;;;;2.13;1.90;;;1.50;99.90;;;;;;5039316;28;20459;-88
2021/12/11 04:22:02;;;;;;;1.87;1.70;;;;;;;;;;5039431;28;20455;-87
2021/12/11 04:24:31;;;;;;;1.73;1.60;;;1.60;99.90;;;;;;5034671;28;20459;-87
2021/12/11 04:27:01;;;;;;;2.43;2.23;;;1.60;99.90;;;;;;5034971;28;20977;-87
2021/12/11 04:29:29;;;;;;;2.27;2.07;;;1.50;99.90;;;;;;5037162;28;20452;-87
2021/12/11 04:32:00;;;;;;;3.97;2.20;;;1.60;99.90;;;;;;5038838;28;20538;-88
2021/12/11 04:34:27;;;;;;;2.57;2.20;;;;;;;;;;5038224;28;20470;-89
2021/12/11 04:37:01;;;;;;;2.97;2.03;;;1.60;99.90;;;;;;5042256;28;20447;-88
2021/12/11 04:39:34;;;;;;;3.00;2.60;;;1.60;99.90;;;;;;5034560;28;20444;-91
2021/12/11 04:42:06;;;;;;;2.33;2.13;;;;;;;;;;5042435;28;20440;-93
2021/12/11 04:44:40;;;;;;;2.43;2.20;;;2.40;99.90;;;;;;5039077;28;20487;-92
2021/12/11 04:47:13;;;;;;;2.30;2.10;;;1.50;99.90;;;;;;5040077;28;20474;-89
2021/12/11 04:49:47;;;;;;;1.97;1.80;;;;;;;;;;5041030;28;20824;-88
2021/12/11 04:52:18;;;;;;;2.63;2.43;;;;;;;;;;5040655;28;20991;-90
2021/12/11 04:54:58;;;;;;;2.40;2.20;;;;;;;;;;5039963;28;20440;-87
2021/12/11 05:00:31;;;;;;;2.10;1.90;;;1.30;99.90;;;;;;5039328;28;20796;-91
2021/12/11 05:05:56;;;;;;;2.30;2.13;;;;;;;;;;5037493;28;20457;-89
2021/12/11 05:08:59;;;;;;;2.67;2.40;;;;;;;;;;5037360;28;20455;-89
2021/12/11 05:11:34;;;;;;;2.23;1.20;;;1.30;99.90;;;;;;5037686;28;20539;-92
2021/12/11 05:14:01;;;;;;;2.60;2.40;;;1.50;99.90;;;;;;5038029;28;20495;-90
2021/12/11 05:16:30;;;;;;;2.63;2.20;;;1.50;99.90;;;;;;5034947;28;20437;-90
2021/12/11 05:18:57;;;;;;;1.40;1.30;;;;;;;;;;5031216;28;20455;-90
2021/12/11 05:21:24;;;;;;;2.10;1.90;;;;;;;;;;5036821;28;20456;-91
2021/12/11 05:23:53;;;;;;;2.23;2.07;;;1.50;99.90;;;;;;5036980;28;20459;-89
2021/12/11 05:26:21;;;;;;;2.60;2.30;;;1.50;99.90;;;;;;5037063;28;20447;-94
2021/12/11 05:28:49;;;;;;;2.20;2.00;;;;;;;;;;5036130;28;20459;-92
2021/12/11 05:31:16;;;;;;;3.50;2.57;;;1.60;99.90;;;;;;5036329;28;20459;-90
2021/12/11 05:33:45;;;;;;;3.10;2.60;;;1.50;99.90;;;;;;5035851;28;20526;-91
2021/12/11 05:36:15;;;;;;;3.50;2.97;;;1.50;99.90;;;;;;5030319;28;20488;-89
2021/12/11 05:38:43;;;;;;;1.77;1.67;;;;;;;;;;5035995;28;20454;-89
2021/12/11 05:41:12;;;;;;;2.80;2.60;;;1.60;99.90;;;;;;5035853;28;21056;-91
2021/12/11 05:43:40;;;;;;;3.67;3.27;;;;;;;;;;5035939;28;20444;-93
2021/12/11 05:46:08;;;;;;;3.13;2.53;;;1.50;99.90;;;;;;5035990;28;20447;-90
2021/12/11 05:48:36;;;;;;;2.40;2.20;;;;;;;;;;5035989;28;20471;-94
2021/12/11 05:51:08;;;;;;;3.40;2.83;;;1.50;99.90;;;;;;5035741;28;20466;-89
2021/12/11 05:53:35;;;;;;;3.63;3.23;;;2.20;99.90;;;;;;5038067;28;20502;-90
2021/12/11 05:56:09;;;;;;;2.27;1.80;;;1.50;99.90;;;;;;5037322;28;20466;-91
2021/12/11 05:58:46;;;;;;;3.80;3.00;;;;;;;;;;5036473;28;20487;-87
2021/12/11 06:01:16;;;;;;;2.67;2.40;;;1.80;99.90;;;;;;5043648;28;20519;-87
2021/12/11 06:03:43;;;;;;;2.53;2.33;;;;;;;;;;5041849;28;20452;-91
2021/12/11 06:06:12;;;;;;;2.83;2.60;;;1.90;99.90;;;;;;5034351;28;20448;-90
2021/12/11 06:08:40;;;;;;;4.07;3.33;;;1.60;99.90;;;;;;5035458;28;20451;-90
2021/12/11 06:11:10;;;;;;;3.63;3.23;;;1.60;99.90;;;;;;5035140;28;20440;-93
2021/12/11 06:13:37;;;;;;;2.33;2.13;;;;;;;;;;5032607;28;20998;-92
2021/12/11 06:16:05;;;;;;;3.73;3.20;;;1.70;99.90;;;;;;5035971;28;20452;-92
2021/12/11 06:18:33;;;;;;;2.83;2.50;;;;;;;;;;5036544;28;20448;-88
2021/12/11 06:21:00;;;;;;;3.50;3.00;;;;;;;;;;5035323;28;20445;-91
2021/12/11 06:23:28;;;;;;;3.33;2.40;;;1.60;99.90;;;;;;5027551;28;20491;-92
2021/12/11 06:25:56;;;;;;;3.40;3.10;;;;;;;;;;5033208;28;20463;-93
2021/12/11 06:28:23;;;;;;;1.80;1.13;;;;;;;;;;5035932;28;20494;-93
2021/12/11 06:30:52;;;;;;;2.50;2.30;;;;;;;;;;5035172;28;20444;-89
2021/12/11 06:33:21;;;;;;;5.83;3.10;;;1.60;99.90;;;;;;5035083;28;20562;-94
2021/12/11 06:35:51;;;;;;;2.87;2.17;;;1.50;99.90;;;;;;5034587;28;20456;-93
2021/12/11 06:38:22;;;;;;;3.47;3.10;;;1.60;99.90;;;;;;5035644;28;20954;-92
2021/12/11 06:40:53;;;;;;;5.80;3.53;;;1.60;99.90;;;;;;5035235;28;20459;-92
2021/12/11 06:43:19;;;;;;;3.53;3.10;;;1.40;99.90;;;;;;5035686;28;20944;-90
2021/12/11 06:45:47;;;;;;;3.50;3.20;;;1.60;99.90;;;;;;5032462;28;20444;-88
2021/12/11 06:48:15;;;;;;;4.33;3.83;;;1.60;99.90;;;;;;4999813;28;20459;-91
2021/12/11 06:50:43;;;;;;;4.80;4.30;;;;;;;;;;5034412;28;20448;-89
2021/12/11 06:53:14;;;;;;;3.77;3.37;;;1.60;99.90;;;;;;5034662;28;20483;-91
2021/12/11 06:55:41;;;;;;;3.70;2.87;;;;;;;;;;5034942;28;20892;-92
2021/12/11 06:58:10;;;;;;;4.20;3.80;;;1.60;99.90;;;;;;5035167;28;20484;-91
2021/12/11 07:00:37;;;;;;;4.63;3.67;;;;;;;;;;5034626;28;20456;-92
2021/12/11 07:03:04;;;;;;;7.40;3.60;;;;;;;;;;5035135;28;20961;-91
2021/12/11 07:05:33;;;;;;;5.40;4.77;;;;;;;;;;5034095;28;20448;-87
2021/12/11 07:08:04;;;;;;;6.50;5.00;;;;;;;;;;5034477;28;20986;-90
2021/12/11 07:10:31;;;;;;;6.60;4.60;;;;;;;;;;5033756;28;20459;-88
2021/12/11 07:12:58;;;;;;;7.33;5.17;;;;;;;;;;5032495;28;20487;-90
2021/12/11 07:15:28;;;;;;;6.57;4.73;;;1.40;99.90;;;;;;5037892;28;20447;-91
2021/12/11 07:17:55;;;;;;;5.50;4.80;;;;;;;;;;5037161;28;20459;-91
2021/12/11 07:20:22;;;;;;;10.13;4.73;;;;;;;;;;5035464;28;20547;-89
2021/12/11 07:22:49;;;;;;;5.83;5.20;;;;;;;;;;5037601;28;20444;-89
2021/12/11 07:25:23;;;;;;;4.17;3.63;;;2.30;99.90;;;;;;5041140;28;20444;-91
2021/12/11 07:27:51;;;;;;;6.83;4.63;;;1.60;99.90;;;;;;5037901;28;20456;-90
2021/12/11 07:30:18;;;;;;;4.30;3.60;;;;;;;;;;5037835;28;20440;-89
2021/12/11 07:32:47;;;;;;;5.33;4.43;;;;;;;;;;5042468;28;20458;-89
2021/12/11 07:35:14;;;;;;;7.17;5.40;;;;;;;;;;5037896;28;20444;-89
2021/12/11 07:37:47;;;;;;;11.10;4.07;;;;;;;;;;5033353;28;20456;-94
2021/12/11 07:40:14;;;;;;;5.63;4.33;;;;;;;;;;5034926;28;20455;-90
2021/12/11 07:42:41;;;;;;;5.10;4.30;;;;;;;;;;5034462;28;20776;-91
2021/12/11 07:45:09;;;;;;;6.20;5.00;;;1.70;99.90;;;;;;5034284;28;20455;-91
2021/12/11 07:47:36;;;;;;;7.40;5.20;;;;;;;;;;5030806;28;20460;-92
2021/12/11 07:50:06;;;;;;;9.80;5.27;;;1.70;99.90;;;;;;5033388;28;20471;-89
2021/12/11 07:52:33;;;;;;;6.10;5.30;;;;;;;;;;5034919;28;20455;-91
2021/12/11 07:55:00;;;;;;;7.80;5.80;;;;;;;;;;5034340;28;20496;-92
2021/12/11 07:57:28;;;;;;;7.00;6.27;;;;;;;;;;5033962;28;20998;-92
2021/12/11 07:59:55;;;;;;;11.07;6.73;;;;;;;;;;5036176;28;20546;-90
2021/12/11 08:02:22;;;;;;;9.60;7.10;;;;;;;;;;5039771;28;20977;-93
2021/12/11 08:04:50;;;;;;;7.93;6.27;;;;;;;;;;5042495;28;20440;-90
2021/12/11 08:07:18;;;;;;;8.23;6.20;;;1.80;99.90;;;;;;5040138;28;20464;-92
2021/12/11 08:09:45;;;;;;;7.30;6.00;;;;;;;;;;5035572;28;20448;-91
2021/12/11 08:12:12;;;;;;;10.03;6.73;;;;;;;;;;5035449;28;20482;-90
2021/12/11 08:14:39;;;;;;;9.03;7.30;;;;;;;;;;5038877;28;20594;-90
2021/12/11 08:17:07;;;;;;;11.20;7.53;;;;;;;;;;5037482;28;20451;-88
2021/12/11 08:19:35;;;;;;;16.93;8.53;;;1.70;99.90;;;;;;5036662;28;20791;-88
2021/12/11 08:22:04;;;;;;;7.80;6.73;;;1.80;99.90;;;;;;5036033;28;20451;-88
2021/12/11 08:24:34;;;;;;;11.23;8.97;;;1.70;99.90;;;;;;5036991;28;20448;-90
2021/12/11 08:27:06;;;;;;;10.10;7.87;;;1.70;99.90;;;;;;5035039;28;20535;-88
2021/12/11 08:29:33;;;;;;;9.50;7.97;;;;;;;;;;5026913;28;20460;-89
2021/12/11 08:32:01;;;;;;;10.20;8.23;;;;;;;;;;5036526;28;20448;-89
2021/12/11 08:34:28;;;;;;;13.60;7.63;;;;;;;;;;5036902;28;20487;-88
2021/12/11 08:36:55;;;;;;;14.63;9.30;;;;;;;;;;5035846;28;20463;-88
2021/12/11 08:39:22;;;;;;;10.97;7.83;;;1.80;99.90;;;;;;5034171;28;20471;-88
2021/12/11 08:41:54;;;;;;;8.90;7.47;;;1.80;99.90;;;;;;5036962;28;20451;-88
2021/12/11 08:44:23;;;;;;;11.70;7.70;;;1.80;99.90;;;;;;5037257;28;20450;-87
2021/12/11 08:46:53;;;;;;;11.00;8.40;;;1.80;99.90;;;;;;5037308;28;20483;-89
2021/12/11 08:49:24;;;;;;;17.90;12.23;;;1.80;99.90;;;;;;5037150;28;20932;-89
2021/12/11 08:51:54;;;;;;;14.10;7.30;;;1.80;99.90;;;;;;5036126;28;20454;-89
2021/12/11 08:54:24;;;;;;;11.63;9.30;;;1.90;99.90;;;;;;5031368;28;20487;-90
2021/12/11 08:56:54;;;;;;;16.97;12.10;;;2.00;99.90;;;;;;5036617;28;20502;-89
2021/12/11 08:59:24;;;;;;;20.27;13.00;;;2.00;99.90;;;;;;5037335;28;20448;-91
2021/12/11 09:01:56;;;;;;;23.33;14.67;;;2.00;99.90;;;;;;5038238;28;20924;-90
2021/12/11 09:04:27;;;;;;;11.80;8.93;;;2.00;99.90;;;;;;5035518;28;20486;-88
2021/12/11 09:06:59;;;;;;;12.83;8.90;;;1.50;99.90;;;;;;5036761;28;20923;-89
2021/12/11 09:09:28;;;;;;;10.80;8.30;;;2.10;99.90;;;;;;5037912;28;20475;-91
2021/12/11 09:12:02;;;;;;;11.97;9.37;;;2.10;99.90;;;;;;5036158;28;20455;-90
2021/12/11 09:14:32;;;;;;;13.77;10.90;;;2.20;99.90;;;;;;5037255;28;20488;-90
2021/12/11 09:17:03;;;;;;;15.70;8.93;;;2.20;99.90;;;;;;5031802;28;20455;-90
2021/12/11 09:19:34;;;;;;;11.80;8.27;;;2.30;99.90;;;;;;5037409;28;20444;-89
2021/12/11 09:22:07;;;;;;;12.10;8.80;;;2.30;99.90;;;;;;5036278;28;20807;-91
2021/12/11 09:24:39;;;;;;;10.93;8.50;;;2.30;99.90;;;;;;5035128;28;20452;-91
2021/12/11 09:27:12;;;;;;;11.90;9.07;;;2.40;99.90;;;;;;5035717;28;20466;-90
2021/12/11 09:29:43;;;;;;;13.53;9.60;;;2.50;99.90;;;;;;5036500;28;20487;-89
2021/12/11 09:32:17;;;;;;;8.90;6.50;;;2.40;99.90;;;;;;5036375;28;20456;-89
2021/12/11 09:34:48;;;;;;;12.50;8.90;;;2.50;99.90;;;;;;5037022;28;20491;-91
2021/12/11 09:37:15;;;;;;;11.17;8.40;;;;;;;;;;5034196;28;20514;-91
2021/12/11 09:39:45;;;;;;;12.07;8.10;;;2.50;99.90;;;;;;5038043;28;20455;-90
2021/12/11 09:42:14;;;;;;;9.83;6.70;;;2.60;99.90;;;;;;5017292;28;20967;-88
2021/12/11 09:44:47;;;;;;;12.50;7.93;;;2.60;99.90;;;;;;5016237;28;20459;-91
2021/12/11 09:47:19;;;;;;;11.03;7.10;;;2.70;99.90;;;;;;5012483;28;20467;-90
2021/12/11 09:49:53;;;;;;;14.87;7.80;;;2.70;99.90;;;;;;5012674;28;20461;-89
2021/12/11 09:52:24;;;;;;;9.20;7.63;;;2.80;99.90;;;;;;5013692;28;20461;-89
2021/12/11 09:54:54;;;;;;;8.50;6.17;;;3.00;99.90;;;;;;5013324;28;20567;-90
2021/12/11 09:57:23;;;;;;;6.67;5.90;;;2.80;99.90;;;;;;5016250;28;20473;-89
2021/12/11 09:59:54;;;;;;;5.43;4.57;;;2.90;99.90;;;;;;5016321;28;20441;-90
2021/12/11 10:02:25;;;;;;;8.07;5.97;;;2.90;99.90;;;;;;5017182;28;20437;-90
2021/12/11 10:04:59;;;;;;;8.23;6.00;;;2.90;99.90;;;;;;5015810;28;20925;-94
2021/12/11 10:07:32;;;;;;;6.23;4.93;;;2.90;99.90;;;;;;5012046;28;20511;-89
2021/12/11 10:10:13;;;;;;;6.93;5.43;;;2.80;99.90;;;;;;5015121;28;20491;-87
2021/12/11 10:12:47;;;;;;;5.30;4.30;;;2.90;99.90;;;;;;5015236;28;20452;-86
2021/12/11 10:15:20;;;;;;;8.40;6.97;;;2.80;99.90;;;;;;5014579;28;20499;-87
2021/12/11 10:17:54;;;;;;;6.57;5.37;;;2.70;99.90;;;;;;5014965;28;20471;-89
2021/12/11 10:20:25;;;;;;;8.87;7.13;;;2.90;99.90;;;;;;5013586;28;20452;-89
2021/12/11 10:22:54;;;;;;;7.10;6.30;;;3.00;99.90;;;;;;5015500;28;20453;-88
2021/12/11 10:25:25;;;;;;;7.93;5.70;;;2.80;99.90;;;;;;5015610;28;20547;-87
2021/12/11 10:27:52;;;;;;;10.07;6.70;;;;;;;;;;5011765;28;20460;-87
2021/12/11 10:30:25;;;;;;;7.63;4.80;;;2.70;99.90;;;;;;5011965;28;20479;-86
2021/12/11 10:32:52;;;;;;;7.13;5.77;;;;;;;;;;5014702;28;20453;-87
2021/12/11 10:35:24;;;;;;;7.60;5.80;;;2.80;99.90;;;;;;5007812;28;20534;-90
2021/12/11 10:37:51;;;;;;;7.60;6.60;;;;;;;;;;5015505;28;20793;-87
2021/12/11 10:40:21;;;;;;;9.07;6.63;;;2.90;99.90;;;;;;5016845;28;20925;-89
2021/12/11 10:42:53;;;;;;;8.77;6.07;;;2.90;99.90;;;;;;5016228;28;20453;-87
2021/12/11 10:45:25;;;;;;;6.80;5.80;;;2.90;99.90;;;;;;5012601;28;20449;-88
2021/12/11 10:47:58;;;;;;;3.50;3.07;;;2.80;99.90;;;;;;5012593;28;20448;-87
2021/12/11 10:50:30;;;;;;;5.30;4.80;;;2.90;99.90;;;;;;4993296;28;20445;-88
2021/12/11 10:52:57;;;;;;;7.17;5.10;;;;;;;;;;4993682;28;20460;-89
2021/12/11 10:55:31;;;;;;;7.47;5.17;;;2.90;99.90;;;;;;4994305;28;20500;-88
2021/12/11 10:58:02;;;;;;;7.43;5.73;;;2.90;99.90;;;;;;4993273;28;20474;-88
2021/12/11 11:00:34;;;;;;;8.53;6.23;;;2.90;99.90;;;;;;4993543;28;20453;-91
2021/12/11 11:03:03;;;;;;;7.40;6.57;;;2.90;99.90;;;;;;4992706;28;20483;-88
2021/12/11 11:05:31;;;;;;;9.57;6.30;;;3.00;99.90;;;;;;4981796;28;20454;-88
2021/12/11 11:07:58;;;;;;;6.57;5.37;;;;;;;;;;4998217;28;20473;-87
2021/12/11 11:10:30;;;;;;;8.57;6.33;;;3.00;99.90;;;;;;5015307;28;20467;-88
2021/12/11 11:13:00;;;;;;;9.30;5.63;;;3.10;99.90;;;;;;5015060;28;20453;-90
2021/12/11 11:15:31;;;;;;;9.63;7.07;;;3.00;99.90;;;;;;5015950;28;20496;-88
2021/12/11 11:17:58;;;;;;;8.40;7.10;;;;;;;;;;5015100;28;20453;-94
2021/12/11 11:20:32;;;;;;;11.07;6.17;;;3.10;99.90;;;;;;5014100;28;20452;-89
2021/12/11 11:23:00;;;;;;;6.80;6.00;;;3.10;99.90;;;;;;5014776;28;20449;-90
2021/12/11 11:25:30;;;;;;;8.40;6.60;;;3.20;99.90;;;;;;5012179;28;20463;-88
2021/12/11 11:28:01;;;;;;;10.50;6.93;;;3.10;99.90;;;;;;5023188;28;20435;-87
2021/12/11 11:30:34;;;;;;;7.10;4.90;;;2.80;99.90;;;;;;5036711;28;20449;-85
2021/12/11 11:33:03;;;;;;;9.30;7.37;;;3.10;99.90;;;;;;5014867;28;20539;-90
2021/12/11 11:35:33;;;;;;;8.13;5.40;;;3.20;99.90;;;;;;5013546;28;20890;-91
2021/12/11 11:38:03;;;;;;;9.93;7.20;;;3.20;99.90;;;;;;5013895;28;20515;-91
2021/12/11 11:40:33;;;;;;;6.43;5.73;;;3.10;99.90;;;;;;5011111;28;20816;-91
2021/12/11 11:43:01;;;;;;;5.30;4.07;;;;;;;;;;5011558;28;21022;-90
2021/12/11 11:45:30;;;;;;;8.27;5.17;;;3.10;99.90;;;;;;5015541;28;20449;-89
2021/12/11 11:47:59;;;;;;;4.57;4.10;;;3.00;99.90;;;;;;5014231;28;20479;-89
2021/12/11 11:50:29;;;;;;;7.97;5.20;;;2.90;99.90;;;;;;5011411;28;20464;-89
2021/12/11 11:52:56;;;;;;;9.60;6.10;;;;;;;;;;5011140;28;20449;-90
2021/12/11 11:55:27;;;;;;;6.97;5.43;;;3.00;99.90;;;;;;5013820;28;20499;-89
2021/12/11 11:57:55;;;;;;;8.47;6.07;;;3.10;99.90;;;;;;5010825;28;20480;-88
2021/12/11 12:00:25;;;;;;;9.20;6.53;;;3.10;99.90;;;;;;5015832;28;20452;-89
2021/12/11 12:02:53;;;;;;;8.13;6.60;;;3.10;99.90;;;;;;5011729;28;20477;-89
2021/12/11 12:05:22;;;;;;;9.50;6.33;;;3.10;99.90;;;;;;5013198;28;20445;-89
2021/12/11 12:07:49;;;;;;;7.27;5.80;;;3.10;99.90;;;;;;5015971;28;20999;-89
2021/12/11 12:10:20;;;;;;;7.30;5.57;;;3.20;99.90;;;;;;5015076;28;20464;-88
2021/12/11 12:12:48;;;;;;;8.53;6.47;;;3.20;99.90;;;;;;5014453;28;20459;-89
2021/12/11 12:15:18;;;;;;;7.60;5.90;;;3.30;99.90;;;;;;5012489;28;20485;-89
2021/12/11 12:17:45;;;;;;;9.73;6.20;;;;;;;;;;5013789;28;20465;-89
2021/12/11 12:20:17;;;;;;;7.93;6.83;;;3.40;99.90;;;;;;5013440;28;20457;-89
2021/12/11 12:22:47;;;;;;;15.77;10.80;;;3.50;99.90;;;;;;5010958;28;20453;-90
2021/12/11 12:25:14;;;;;;;9.90;6.63;;;;;;;;;;5013773;28;20452;-90
2021/12/11 12:27:43;;;;;;;3.77;3.07;;;3.40;99.90;;;;;;5014397;28;20468;-89
2021/12/11 12:30:16;;;;;;;6.63;5.10;;;3.40;99.90;;;;;;5014814;28;20444;-90
2021/12/11 12:32:43;;;;;;;8.47;6.50;;;;;;;;;;5014375;28;20952;-88
2021/12/11 12:35:13;;;;;;;9.03;6.20;;;3.40;99.90;;;;;;5013411;28;20485;-88
2021/12/11 12:37:42;;;;;;;7.57;5.47;;;3.40;99.90;;;;;;5016394;28;20936;-90
2021/12/11 12:40:15;;;;;;;6.30;4.77;;;3.60;99.90;;;;;;5014929;28;20455;-87
2021/12/11 12:42:51;;;;;;;9.23;5.80;;;3.50;99.90;;;;;;5014917;28;20948;-89
2021/12/11 12:45:33;;;;;;;18.90;11.00;;;3.30;99.90;;;;;;5012635;28;20464;-91
2021/12/11 12:48:06;;;;;;;11.27;7.17;;;3.40;99.90;;;;;;5017632;28;20448;-90
2021/12/11 12:50:39;;;;;;;5.00;3.73;;;3.60;99.90;;;;;;5020291;28;20507;-89
2021/12/11 12:53:08;;;;;;;8.80;7.43;;;;;;;;;;5021877;28;20448;-90
2021/12/11 12:55:39;;;;;;;6.20;5.60;;;3.60;99.90;;;;;;5020262;28;20586;-93
2021/12/11 12:58:11;;;;;;;12.87;5.70;;;3.60;99.90;;;;;;5019071;28;20473;-88
2021/12/11 13:00:42;;;;;;;4.10;3.70;;;3.50;99.90;;;;;;5020141;28;20959;-91
2021/12/11 13:03:14;;;;;;;5.27;3.07;;;3.30;99.90;;;;;;5019028;28;20873;-88
2021/12/11 13:05:46;;;;;;;5.67;3.53;;;3.30;99.90;;;;;;5018435;28;20448;-89
2021/12/11 13:08:19;;;;;;;4.20;3.30;;;3.40;99.90;;;;;;5015542;28;20472;-90
2021/12/11 13:10:53;;;;;;;5.63;3.30;;;3.40;99.90;;;;;;5017476;28;20456;-88
2021/12/11 13:13:22;;;;;;;5.40;3.50;;;3.30;99.90;;;;;;5019472;28;20807;-90
2021/12/11 13:15:55;;;;;;;5.10;4.20;;;3.30;99.90;;;;;;5016664;28;20497;-91
2021/12/11 13:18:26;;;;;;;6.23;4.40;;;3.30;99.90;;;;;;5017202;28;20460;-90
2021/12/11 13:21:02;;;;;;;3.20;2.90;;;3.40;99.90;;;;;;5016604;28;20456;-88
2021/12/11 13:23:29;;;;;;;5.10;4.03;;;;;;;;;;5016840;28;20847;-89
2021/12/11 13:26:01;;;;;;;6.00;4.30;;;3.30;99.90;;;;;;5016880;28;20449;-89
2021/12/11 13:28:32;;;;;;;4.80;3.87;;;3.20;99.90;;;;;;5018078;28;20449;-91
2021/12/11 13:31:06;;;;;;;5.33;4.43;;;3.20;99.90;;;;;;5019147;28;20441;-93
2021/12/11 13:33:33;;;;;;;4.37;3.33;;;3.20;99.90;;;;;;5017109;28;20460;-88
2021/12/11 13:36:01;;;;;;;4.10;3.70;;;3.10;99.90;;;;;;5018558;28;20492;-90
2021/12/11 13:38:31;;;;;;;4.57;3.90;;;3.00;99.90;;;;;;5011420;28;20539;-89
2021/12/11 13:41:05;;;;;;;5.20;4.60;;;3.00;99.90;;;;;;5019043;28;20480;-90